• Join FlightAware (Why Join?)
  • Login
  • US Flag 
11:33PM EDT


 

Airport Tracker/Info


-or-


 

Live Flight TrackerFlight Track Log ✈ ASQ6151 ✈ 01-May-2013 ✈ KSAV - KORD

Flight Track Log - Related Links

Times and Time Zones

All times are in EDT time to prevent confusion due to time zone crossing. See the ASQ6151 flight status page for this flight to view local times or setup timezone preferences in your user account.

Time Position Orientation Groundspeed Altitude Reporting Facility
EDT Latitude Longitude Course Direction KTS MPH feet Rate Location/Type
05:50PM 32.2450 -81.1928 North 264 304 5,300  Level Jacksonville Center
05:51PM 32.3178 -81.1864 North 264 304 7,900 2,340 Climbing Jacksonville Center
05:52PM 32.3889 -81.1803 North 276 318 10,000 1,800 Climbing Jacksonville Center
05:53PM 32.4789 -81.1958 352° North 293 337 11,500 1,260 Climbing Jacksonville Center
05:54PM 32.6664 -81.1500 North  Level FlightAware Approximate
05:54PM 32.5731 -81.2164 350° North 334 384 12,600  Level Jacksonville Center
05:55PM 32.7589 -81.1427 North  Level FlightAware Approximate
05:55PM 32.6672 -81.2367 350° North 360 414 13,800  Level Jacksonville Center
05:56PM 32.8512 -81.1311 North  Level FlightAware Approximate
05:56PM 32.7803 -81.2619 349° North 367 422 15,200  Level Jacksonville Center
05:57PM 32.8850 -81.2847 350° North 372 428 16,600 1,320 Climbing Jacksonville Center
05:58PM 32.9894 -81.3100 349° North 377 434 17,900 1,200 Climbing Jacksonville Center
05:59PM 33.0922 -81.3356 348° North 377 434 19,100 1,200 Climbing Jacksonville Center
06:00PM 33.2011 -81.3583 350° North 377 434 20,300 1,200 Climbing Jacksonville Center
06:01PM 33.3119 -81.3814 350° North 387 445 21,500 1,200 Climbing Jacksonville Center
06:02PM 33.4228 -81.4069 349° North 399 459 22,700 1,200 Climbing Jacksonville Center
06:03PM 33.5381 -81.4347 349° North 405 466 23,900 1,200 Climbing Jacksonville Center
06:04PM 33.6508 -81.4603 349° North 410 472 25,200 1,260 Climbing Jacksonville Center
06:05PM 33.7617 -81.4836 350° North 410 472 26,500 900 Climbing Jacksonville Center
06:06PM 33.8747 -81.5119 348° North 410 472 27,000 660 Climbing Jacksonville Center
06:07PM 33.9772 -81.5353 349° North 416 479 27,900 1,260 Climbing Jacksonville Center
06:09PM 34.2186 -81.5944 349° North 402 463 31,100 1,380 Climbing Atlanta Center
06:10PM 34.3256 -81.6167 350° North 396 456 32,500 1,260 Climbing Atlanta Center
06:11PM 34.4325 -81.6461 347° North 396 456 33,700 720 Climbing Atlanta Center
06:12PM 34.5436 -81.6708 350° North 396 456 34,000 120 Climbing Atlanta Center
06:13PM 34.6736 -81.7025 349° North 403 464 34,000  Level Atlanta Center
06:14PM 34.7828 -81.7297 348° North 430 495 34,000  Level Atlanta Center
06:15PM 34.9042 -81.7594 349° North 440 506 34,000  Level Atlanta Center
06:16PM 35.0236 -81.7892 348° North 440 506 34,000  Level Atlanta Center
06:17PM 35.1475 -81.8186 349° North 440 506 34,000  Level Atlanta Center
06:18PM 35.2667 -81.8461 349° North 440 506 34,000  Level Atlanta Center
06:19PM 35.4008 -81.8806 348° North 435 501 34,000  Level Atlanta Center
06:20PM 35.5225 -81.9106 349° North 435 501 34,000  Level Atlanta Center
06:21PM 35.6419 -81.9458 347° North 440 506 34,000  Level Atlanta Center
06:22PM 35.7456 -82.0200 330° Northwest 428 493 34,000  Level Atlanta Center
06:23PM 35.8489 -82.0969 329° Northwest 428 493 34,000  Level Atlanta Center
06:24PM 35.9522 -82.1739 329° Northwest 435 501 34,000  Level Atlanta Center
06:25PM 36.0514 -82.2511 328° Northwest 430 495 34,000  Level Atlanta Center
06:26PM 36.1547 -82.3286 329° Northwest 430 495 34,000  Level Atlanta Center
06:27PM 36.2581 -82.4064 329° Northwest 430 495 34,000  Level Atlanta Center
06:28PM 36.3592 -82.4842 328° Northwest 437 503 34,000  Level Atlanta Center
06:29PM 36.4625 -82.5647 328° Northwest 432 497 34,000  Level Atlanta Center
06:30PM 36.5656 -82.6456 328° Northwest 432 497 34,000  Level Atlanta Center
06:31PM 36.6378 -82.6989 329° Northwest 436 502 34,000  Level Indianapolis Center
06:32PM 36.7400 -82.7786 328° Northwest 433 498 34,000  Level Indianapolis Center
06:33PM 36.8589 -82.8703 328° Northwest 435 501 34,000  Level Indianapolis Center
06:34PM 36.9664 -82.9547 328° Northwest 450 518 34,000  Level Indianapolis Center
06:35PM 37.0781 -83.0428 328° Northwest 438 504 34,000  Level Indianapolis Center
06:36PM 37.1814 -83.1239 328° Northwest 436 502 34,000  Level Indianapolis Center
06:37PM 37.2847 -83.2064 328° Northwest 439 505 34,000  Level Indianapolis Center
06:38PM 37.3886 -83.2881 328° Northwest 441 507 34,000  Level Indianapolis Center
06:39PM 37.4922 -83.3711 328° Northwest 439 505 34,000  Level Indianapolis Center
06:40PM 37.6131 -83.4664 328° Northwest 439 505 34,000  Level Indianapolis Center
06:42PM 37.7164 -83.5508 327° Northwest 440 506 34,000  Level Indianapolis Center
06:43PM 37.8192 -83.6331 328° Northwest 439 505 34,000  Level Indianapolis Center
06:44PM 37.9242 -83.7153 328° Northwest 440 506 34,000  Level Indianapolis Center
06:45PM 38.0272 -83.8006 327° Northwest 440 506 34,000  Level Indianapolis Center
06:46PM 38.1300 -83.8856 327° Northwest 440 506 34,000  Level Indianapolis Center
06:47PM 38.2506 -83.9819 328° Northwest 438 504 34,000  Level Indianapolis Center
06:48PM 38.3531 -84.0667 327° Northwest 438 504 34,000  Level Indianapolis Center
06:49PM 38.4567 -84.1497 328° Northwest 441 507 34,000  Level Indianapolis Center
06:50PM 38.5583 -84.2353 327° Northwest 437 503 34,000  Level Indianapolis Center
06:51PM 38.6561 -84.3214 325° Northwest 441 507 34,000  Level Indianapolis Center
06:52PM 38.7617 -84.4406 319° Northwest 428 493 34,000 -480 Level Indianapolis Center
06:53PM 38.8547 -84.5494 318° Northwest 431 496 33,100 -960 Descending Indianapolis Center
06:54PM 38.9547 -84.6344 327° Northwest 447 514 32,100 -540 Descending Indianapolis Center
06:55PM 39.0653 -84.7081 333° Northwest 446 513 32,000 -60 Descending Indianapolis Center
06:56PM 39.1767 -84.7819 333° Northwest 446 513 32,000 -420 Level Indianapolis Center
06:57PM 39.2886 -84.8564 333° Northwest 448 516 31,200 -1,020 Descending Indianapolis Center
06:58PM 39.4036 -84.9339 332° Northwest 455 524 30,000 -1,440 Descending Indianapolis Center
06:59PM 39.5358 -85.0239 332° Northwest 456 525 28,300 -1,020 Descending Indianapolis Center
07:00PM 39.6547 -85.1031 333° Northwest 472 543 28,000 -180 Descending Indianapolis Center
07:01PM 39.7728 -85.1833 332° Northwest 476 548 28,000 -540 Level Indianapolis Center
07:02PM 39.8917 -85.2642 332° Northwest 479 551 27,000 -1,020 Descending Indianapolis Center
07:03PM 40.0108 -85.3447 333° Northwest 480 552 26,000 -1,140 Descending Indianapolis Center
07:04PM 40.1308 -85.4281 332° Northwest 486 559 24,700 -1,380 Descending Indianapolis Center
07:05PM 40.1700 -85.4542 333° Northwest 486 559 24,300 -600 Descending Chicago Center
07:06PM 40.2858 -85.5328 333° Northwest 471 542 24,000 -180 Descending Chicago Center
07:07PM 40.3975 -85.6111 332° Northwest 457 526 24,000  Level Chicago Center
07:08PM 40.5103 -85.6842 334° Northwest 453 521 24,000  Level Chicago Center
07:09PM 40.6511 -85.7383 344° North 451 519 24,000 -60 Level Chicago Center
07:10PM 40.7622 -85.7831 343° North 443 510 23,900 -660 Descending Chicago Center
07:11PM 40.8486 -85.8939 316° Northwest 436 502 22,700 -960 Descending Chicago Center
07:12PM 40.9050 -86.0353 298° West 433 498 22,000 -360 Descending Chicago Center
07:13PM 40.9597 -86.1700 298° West 422 486 22,000  Level Chicago Center
07:14PM 41.0156 -86.3083 298° West 426 490 22,000  Level Chicago Center
07:15PM 41.0817 -86.4761 298° West 427 491 22,000 -1,020 Level Chicago Center
07:16PM 41.1372 -86.6136 298° West 424 488 20,000 -2,100 Descending Chicago Center
07:17PM 41.1911 -86.7489 298° West 407 468 17,700 -2,280 Descending Chicago Center
07:18PM 41.2417 -86.8769 298° West 397 457 15,300 -2,280 Descending Chicago Center
07:19PM 41.2889 -86.9992 297° West 381 438 13,000 -2,100 Descending Chicago Center
07:20PM 41.3344 -87.1183 297° West 370 426 11,000 -1,020 Descending Chicago Center
07:21PM 41.4067 -87.2428 308° West 363 418 11,000  Level Chicago Center
07:22PM 41.5000 -87.3500 319° Northwest 371 427 11,100  Climbing Chicago TRACON
07:23PM 41.5606 -87.4211 319° Northwest 370 426 11,000 -60 Descending Chicago Center
07:24PM 41.6375 -87.5064 320° Northwest 366 421 11,000 -420 Level Chicago Center
07:25PM 41.7228 -87.6025 320° Northwest 328 377 10,200 -1,080 Descending Chicago Center
07:26PM 41.7850 -87.6733 320° Northwest 300 345 8,800 -1,260 Descending Chicago Center
07:27PM 41.8572 -87.7083 340° North 296 341 7,600 -960 Descending Chicago Center
07:28PM 41.9339 -87.7122 358° North 282 325 6,900 -660 Descending Chicago Center
07:29PM 42.0167 -87.7167 358° North 253 291 6,300 -900 Descending Chicago TRACON
07:30PM 42.0667 -87.6833 26° Northeast 239 275 5,200 -1,080 Descending Chicago TRACON
07:31PM 42.1167 -87.7167 334° Northwest 211 243 4,200 -1,080 Descending Chicago TRACON
07:32PM 42.1000 -87.7833 251° West 183 211 3,100 -900 Descending Chicago TRACON
07:33PM 42.0667 -87.8167 217° Southwest 176 203 2,400 -720 Descending Chicago TRACON
07:34PM 42.0333 -87.8500 217° Southwest 129 148 1,700 -720 Descending Chicago TRACON
07:35PM 42.0000 -87.8833 217° Southwest 138 159 1,000 -720 Descending Chicago TRACON
07:37PM 41.9817 -87.9067 238° Southwest  Level Estimated
07:44PM 41.9817 -87.9067 238° Southwest  Level Estimated